Time;durP1;ratioP1;P1;durP2;ratioP2;P2;SDS_P1;SDS_P2;PMS_P1;PMS_P2;Temp;Humidity;BMP_temperature;BMP_pressure;BME280_temperature;BME280_humidity;BME280_pressure;Samples;Min_cycle;Max_cycle;Signal;HPM_P1;HPM_P2
2021/01/25 00:01:31;;;;;;;23.23;16.17;;;4.00;99.90;;;;;;5120237;27;20194;-60
2021/01/25 00:03:57;;;;;;;23.50;15.60;;;4.10;99.90;;;;;;5115992;27;20179;-60
2021/01/25 00:06:22;;;;;;;19.80;13.77;;;4.10;99.90;;;;;;5118676;27;20259;-60
2021/01/25 00:08:48;;;;;;;23.67;14.70;;;4.00;99.90;;;;;;5121059;27;20264;-59
2021/01/25 00:11:14;;;;;;;20.40;13.60;;;4.00;99.90;;;;;;5117793;27;20186;-60
2021/01/25 00:13:39;;;;;;;22.00;13.40;;;4.00;99.90;;;;;;5125165;27;20182;-59
2021/01/25 00:16:05;;;;;;;22.53;14.67;;;4.00;99.90;;;;;;5118727;27;20190;-60
2021/01/25 00:18:31;;;;;;;21.73;14.30;;;4.10;99.90;;;;;;5124234;27;20284;-60
2021/01/25 00:20:56;;;;;;;22.40;14.40;;;4.10;99.90;;;;;;5108893;27;20526;-59
2021/01/25 00:23:22;;;;;;;23.07;14.40;;;4.20;99.90;;;;;;5114616;27;20191;-60
2021/01/25 00:25:48;;;;;;;21.83;14.10;;;4.20;99.90;;;;;;5116173;27;20181;-59
2021/01/25 00:28:13;;;;;;;23.80;14.87;;;4.20;99.90;;;;;;5125016;27;20207;-60
2021/01/25 00:30:39;;;;;;;22.57;14.20;;;3.90;99.90;;;;;;5117967;27;20192;-60
2021/01/25 00:33:05;;;;;;;24.87;14.10;;;3.90;99.90;;;;;;5112708;27;20705;-59
2021/01/25 00:35:30;;;;;;;23.10;15.80;;;4.00;99.90;;;;;;5129929;27;20600;-60
2021/01/25 00:37:56;;;;;;;20.33;13.63;;;4.00;99.90;;;;;;5112586;27;20218;-60
2021/01/25 00:40:22;;;;;;;20.63;14.13;;;4.10;99.90;;;;;;5115063;27;20193;-60
2021/01/25 00:42:47;;;;;;;22.13;13.53;;;4.30;99.90;;;;;;5115922;27;20641;-60
2021/01/25 00:45:13;;;;;;;20.47;14.13;;;4.30;99.90;;;;;;5118053;27;20197;-59
2021/01/25 00:47:39;;;;;;;21.80;14.77;;;4.30;99.90;;;;;;5113309;27;20838;-59
2021/01/25 00:50:05;;;;;;;23.73;15.30;;;4.20;99.90;;;;;;5117757;27;20549;-59
2021/01/25 00:52:31;;;;;;;20.37;13.67;;;4.20;99.90;;;;;;5117014;27;20221;-61
2021/01/25 00:54:56;;;;;;;23.47;14.20;;;4.10;99.90;;;;;;5119470;27;20469;-59
2021/01/25 00:57:22;;;;;;;18.37;14.00;;;4.10;99.90;;;;;;5119936;27;20726;-59
2021/01/25 00:59:48;;;;;;;23.03;14.33;;;4.20;99.90;;;;;;5115045;27;20280;-59
2021/01/25 01:02:13;;;;;;;21.77;14.90;;;4.10;99.90;;;;;;5118256;27;20203;-59
2021/01/25 01:04:39;;;;;;;20.60;12.50;;;4.20;99.90;;;;;;5127006;27;20216;-59
2021/01/25 01:07:04;;;;;;;20.07;12.73;;;4.20;99.90;;;;;;5124888;27;20187;-59
2021/01/25 01:09:30;;;;;;;20.83;12.97;;;4.20;99.90;;;;;;5121470;27;20242;-59
2021/01/25 01:11:56;;;;;;;19.70;13.57;;;4.20;99.90;;;;;;5114377;27;20190;-60
2021/01/25 01:14:23;;;;;;;19.87;13.00;;;4.30;99.90;;;;;;5122057;27;20185;-59
2021/01/25 01:16:49;;;;;;;22.20;14.00;;;4.30;99.90;;;;;;5120512;27;20813;-59
2021/01/25 01:19:14;;;;;;;18.97;12.60;;;4.20;99.90;;;;;;5127811;27;20443;-59
2021/01/25 01:21:40;;;;;;;20.30;14.90;;;4.20;99.90;;;;;;5122407;27;20203;-59
2021/01/25 01:24:06;;;;;;;21.17;14.20;;;4.30;99.90;;;;;;5121165;27;20243;-60
2021/01/25 01:26:32;;;;;;;22.33;15.00;;;4.20;99.90;;;;;;5111050;27;20174;-59
2021/01/25 01:28:58;;;;;;;21.40;12.50;;;4.10;99.90;;;;;;5123609;27;20877;-59
2021/01/25 01:31:23;;;;;;;23.90;14.20;;;4.20;99.90;;;;;;5119062;27;20192;-59
2021/01/25 01:33:49;;;;;;;18.07;12.80;;;4.30;99.90;;;;;;5114119;27;20178;-59
2021/01/25 01:36:15;;;;;;;21.20;14.60;;;4.30;99.90;;;;;;5115119;27;20532;-60
2021/01/25 01:38:41;;;;;;;20.33;12.60;;;4.40;99.90;;;;;;5121074;27;20181;-59
2021/01/25 01:41:07;;;;;;;19.50;13.83;;;4.50;99.90;;;;;;5123598;27;20232;-59
2021/01/25 01:43:32;;;;;;;20.93;13.90;;;4.40;99.90;;;;;;5120188;28;20942;-59
2021/01/25 01:45:58;;;;;;;24.53;14.57;;;4.40;99.90;;;;;;5117379;27;20173;-60
2021/01/25 01:48:25;;;;;;;22.90;15.00;;;4.40;99.90;;;;;;5120926;27;20262;-59
2021/01/25 01:50:51;;;;;;;21.70;14.30;;;4.40;99.90;;;;;;5125797;27;20267;-59
2021/01/25 01:53:17;;;;;;;24.07;15.50;;;4.50;99.90;;;;;;5115352;27;20536;-59
2021/01/25 01:55:44;;;;;;;21.03;13.40;;;4.60;99.90;;;;;;5113209;28;20580;-59
2021/01/25 01:58:10;;;;;;;23.23;14.70;;;4.40;99.90;;;;;;5128221;28;20946;-59
2021/01/25 02:00:36;;;;;;;23.70;14.93;;;4.40;99.90;;;;;;5129624;27;20514;-59
2021/01/25 02:03:02;;;;;;;22.20;15.03;;;4.40;99.90;;;;;;5119020;28;20955;-60
2021/01/25 02:05:28;;;;;;;22.77;14.47;;;4.40;99.90;;;;;;5113728;28;20191;-59
2021/01/25 02:07:56;;;;;;;20.73;13.83;;;4.50;99.90;;;;;;5112442;28;20205;-59
2021/01/25 02:10:23;;;;;;;21.40;14.57;;;4.50;99.90;;;;;;5116852;27;20645;-59
2021/01/25 02:12:51;;;;;;;22.50;14.87;;;4.50;99.90;;;;;;5125986;27;20558;-59
2021/01/25 02:15:18;;;;;;;25.37;14.50;;;4.50;99.90;;;;;;5124904;27;20533;-59
2021/01/25 02:17:48;;;;;;;24.00;15.03;;;4.50;99.90;;;;;;5127081;27;20498;-59
2021/01/25 02:20:25;;;;;;;24.20;14.87;;;4.50;99.90;;;;;;5118596;27;20450;-59
2021/01/25 02:23:00;;;;;;;26.17;15.50;;;4.50;99.90;;;;;;5126333;27;20970;-59
2021/01/25 02:25:35;;;;;;;24.87;16.50;;;4.50;99.90;;;;;;5120435;27;20461;-59
2021/01/25 02:28:01;;;;;;;26.23;14.90;;;4.40;99.90;;;;;;5119183;27;20499;-60
2021/01/25 02:30:27;;;;;;;25.60;17.27;;;4.30;99.90;;;;;;5128404;27;21058;-59
2021/01/25 02:32:54;;;;;;;23.23;16.30;;;4.30;99.90;;;;;;5128716;27;20943;-59
2021/01/25 02:35:21;;;;;;;24.10;15.97;;;4.30;99.90;;;;;;5135836;27;20432;-59
2021/01/25 02:37:52;;;;;;;26.13;16.77;;;4.20;99.90;;;;;;5126212;27;20476;-59
2021/01/25 02:40:20;;;;;;;25.77;17.00;;;4.20;99.90;;;;;;5125846;27;21056;-59
2021/01/25 02:42:46;;;;;;;23.17;15.00;;;4.20;99.90;;;;;;5128018;27;20450;-60
2021/01/25 02:45:13;;;;;;;24.93;15.17;;;4.20;99.90;;;;;;5117369;27;20442;-59
2021/01/25 02:47:40;;;;;;;28.17;15.80;;;4.30;99.90;;;;;;5122112;27;20471;-59
2021/01/25 02:50:06;;;;;;;23.00;15.93;;;4.30;99.90;;;;;;5121621;27;20449;-59
2021/01/25 02:52:32;;;;;;;27.57;17.70;;;4.30;99.90;;;;;;5119326;27;20436;-59
2021/01/25 02:54:58;;;;;;;24.50;16.83;;;4.30;99.90;;;;;;5124130;27;20471;-59
2021/01/25 02:57:24;;;;;;;28.20;17.47;;;4.40;99.90;;;;;;5135220;27;20466;-60
2021/01/25 02:59:50;;;;;;;25.80;16.30;;;4.40;99.90;;;;;;5129876;27;20494;-60
2021/01/25 03:02:17;;;;;;;24.57;15.70;;;4.40;99.90;;;;;;5115938;27;20174;-60
2021/01/25 03:04:43;;;;;;;28.10;15.57;;;4.20;99.90;;;;;;5121116;27;20416;-60
2021/01/25 03:07:09;;;;;;;24.47;15.93;;;4.30;99.90;;;;;;5128301;27;20626;-60
2021/01/25 03:09:35;;;;;;;26.60;16.97;;;4.30;99.90;;;;;;5122335;27;20996;-60
2021/01/25 03:12:04;;;;;;;26.47;17.27;;;4.20;99.90;;;;;;5120402;27;20451;-59
2021/01/25 03:14:30;;;;;;;25.67;16.73;;;4.20;99.90;;;;;;5122154;27;20527;-60
2021/01/25 03:16:56;;;;;;;30.17;16.80;;;4.20;99.90;;;;;;5121193;27;20462;-59
2021/01/25 03:19:22;;;;;;;30.00;18.70;;;4.20;99.90;;;;;;5125191;27;20438;-60
2021/01/25 03:21:50;;;;;;;26.47;17.20;;;4.20;99.90;;;;;;5124520;27;20482;-59
2021/01/25 03:24:19;;;;;;;27.33;16.50;;;4.10;99.90;;;;;;5118679;27;20432;-60
2021/01/25 03:26:44;;;;;;;24.53;16.10;;;4.20;99.90;;;;;;5126307;27;20996;-59
2021/01/25 03:29:11;;;;;;;25.33;15.80;;;4.20;99.90;;;;;;5117871;27;20565;-59
2021/01/25 03:31:37;;;;;;;28.13;16.50;;;4.20;99.90;;;;;;5128950;27;20218;-59
2021/01/25 03:34:04;;;;;;;28.23;15.47;;;4.20;99.90;;;;;;5122847;27;20455;-59
2021/01/25 03:36:30;;;;;;;23.70;14.60;;;4.20;99.90;;;;;;5126111;27;20445;-59
2021/01/25 03:38:56;;;;;;;22.00;14.70;;;4.20;99.90;;;;;;5116079;27;20461;-59
2021/01/25 03:41:22;;;;;;;19.67;14.20;;;4.20;99.90;;;;;;5120364;27;20182;-59
2021/01/25 03:43:48;;;;;;;20.33;13.60;;;4.10;99.90;;;;;;5111620;28;20522;-59
2021/01/25 03:46:14;;;;;;;20.63;14.03;;;4.30;99.90;;;;;;5123483;27;20179;-59
2021/01/25 03:48:39;;;;;;;20.40;13.57;;;4.30;99.90;;;;;;5122543;27;20203;-59
2021/01/25 03:51:05;;;;;;;19.97;12.77;;;4.10;99.90;;;;;;5130263;27;20214;-59
2021/01/25 03:53:32;;;;;;;17.83;11.50;;;4.00;99.90;;;;;;5114237;27;20230;-59
2021/01/25 03:55:58;;;;;;;19.87;13.13;;;4.00;99.90;;;;;;5113114;28;20191;-59
2021/01/25 03:58:24;;;;;;;15.00;10.33;;;4.10;99.90;;;;;;5119571;27;20497;-59
2021/01/25 04:00:50;;;;;;;19.87;11.13;;;4.00;99.90;;;;;;5119381;27;20481;-59
2021/01/25 04:03:15;;;;;;;25.80;11.80;;;3.90;99.90;;;;;;5112963;27;20447;-60
2021/01/25 04:05:41;;;;;;;18.40;11.90;;;3.90;99.90;;;;;;5128261;27;20641;-61
2021/01/25 04:08:07;;;;;;;18.27;12.27;;;3.90;99.90;;;;;;5119208;27;20195;-59
2021/01/25 04:10:32;;;;;;;17.60;11.87;;;4.10;99.90;;;;;;5113122;28;20662;-59
2021/01/25 04:12:58;;;;;;;14.77;9.43;;;4.20;99.90;;;;;;5119092;27;20665;-59
2021/01/25 04:15:24;;;;;;;16.67;10.60;;;4.10;99.90;;;;;;5120236;27;20180;-60
2021/01/25 04:17:49;;;;;;;17.20;10.37;;;4.10;99.90;;;;;;5119697;27;20204;-59
2021/01/25 04:20:15;;;;;;;16.97;10.93;;;4.00;99.90;;;;;;5119037;27;20189;-60
2021/01/25 04:22:41;;;;;;;16.67;11.33;;;4.00;99.90;;;;;;5118956;27;20208;-59
2021/01/25 04:25:07;;;;;;;18.10;12.20;;;3.90;99.90;;;;;;5113386;27;20184;-59
2021/01/25 04:27:34;;;;;;;13.60;10.50;;;3.70;99.90;;;;;;5120932;27;20650;-59
2021/01/25 04:30:00;;;;;;;13.53;10.57;;;3.60;99.90;;;;;;5123491;27;20437;-60
2021/01/25 04:32:25;;;;;;;21.80;12.07;;;3.50;99.90;;;;;;5114989;27;20449;-60
2021/01/25 04:34:52;;;;;;;15.23;10.13;;;3.40;99.90;;;;;;5122697;27;20953;-61
2021/01/25 04:37:18;;;;;;;18.27;11.17;;;3.30;99.90;;;;;;5118865;27;20247;-60
2021/01/25 04:39:44;;;;;;;16.07;10.90;;;3.30;99.90;;;;;;5113519;27;20460;-60
2021/01/25 04:42:10;;;;;;;15.53;11.07;;;3.30;99.90;;;;;;5114486;27;20478;-59
2021/01/25 04:44:41;;;;;;;19.27;11.90;;;3.30;99.90;;;;;;5114512;27;20230;-60
2021/01/25 04:47:08;;;;;;;15.00;10.33;;;3.30;99.90;;;;;;5119073;27;20527;-60
2021/01/25 04:49:36;;;;;;;15.70;10.37;;;3.40;99.90;;;;;;5125018;27;20490;-60
2021/01/25 04:52:02;;;;;;;15.57;10.17;;;3.30;99.90;;;;;;5127841;27;20440;-60
2021/01/25 04:54:28;;;;;;;17.27;10.43;;;3.30;99.90;;;;;;5112724;27;20445;-59
2021/01/25 04:56:55;;;;;;;20.13;10.60;;;3.40;99.90;;;;;;5121316;27;20573;-59
2021/01/25 04:59:21;;;;;;;13.00;8.27;;;3.60;99.90;;;;;;5116921;27;20453;-59
2021/01/25 05:01:47;;;;;;;17.23;9.87;;;3.60;99.90;;;;;;5125965;27;20423;-59
2021/01/25 05:04:13;;;;;;;14.13;10.03;;;3.60;99.90;;;;;;5129965;27;20943;-60
2021/01/25 05:06:39;;;;;;;18.63;10.07;;;3.70;99.90;;;;;;5129001;27;20177;-59
2021/01/25 05:09:05;;;;;;;15.50;9.33;;;3.70;99.90;;;;;;5122113;27;20203;-60
2021/01/25 05:11:30;;;;;;;13.07;9.63;;;3.80;99.90;;;;;;5123285;27;20440;-59
2021/01/25 05:14:03;;;;;;;17.30;10.00;;;3.90;99.90;;;;;;5122480;27;20176;-60
2021/01/25 05:16:31;;;;;;;15.90;10.23;;;3.70;99.90;;;;;;5125635;27;20178;-60
2021/01/25 05:18:59;;;;;;;15.77;10.63;;;3.70;99.90;;;;;;5120277;27;20431;-60
2021/01/25 05:21:41;;;;;;;15.17;9.97;;;3.60;99.90;;;;;;5121142;27;20496;-60
2021/01/25 05:24:07;;;;;;;14.43;10.13;;;3.50;99.90;;;;;;5131897;27;20457;-59
2021/01/25 05:26:35;;;;;;;14.23;9.83;;;3.50;99.90;;;;;;5111538;27;20423;-59
2021/01/25 05:29:01;;;;;;;16.20;9.37;;;3.60;99.90;;;;;;5120603;27;20999;-59
2021/01/25 05:31:27;;;;;;;17.67;9.87;;;3.60;99.90;;;;;;5108948;28;20441;-59
2021/01/25 05:33:53;;;;;;;19.73;10.53;;;3.60;99.90;;;;;;5115452;28;20941;-59
2021/01/25 05:36:27;;;;;;;16.40;9.70;;;3.60;99.90;;;;;;5112226;28;20434;-60
2021/01/25 05:38:53;;;;;;;15.23;9.17;;;3.60;99.90;;;;;;5118413;27;20425;-59
2021/01/25 05:41:20;;;;;;;15.33;10.07;;;3.60;99.90;;;;;;5110959;28;20432;-60
2021/01/25 05:43:47;;;;;;;22.37;10.47;;;3.70;99.90;;;;;;5115442;27;20442;-60
2021/01/25 05:46:15;;;;;;;16.87;9.73;;;3.80;99.90;;;;;;5118336;27;20443;-59
2021/01/25 05:48:41;;;;;;;17.37;9.57;;;3.80;99.90;;;;;;5118463;27;20435;-59
2021/01/25 05:51:15;;;;;;;31.00;10.33;;;3.80;99.90;;;;;;5126559;27;20462;-59
2021/01/25 05:53:43;;;;;;;15.80;10.00;;;3.90;99.90;;;;;;5117736;27;20504;-59
2021/01/25 05:56:10;;;;;;;15.70;10.43;;;4.00;99.90;;;;;;5124020;27;20444;-59
2021/01/25 05:58:36;;;;;;;17.67;10.07;;;3.90;99.90;;;;;;5129737;27;20469;-59
2021/01/25 06:01:03;;;;;;;16.10;10.50;;;3.90;99.90;;;;;;5126052;27;20950;-59
2021/01/25 06:03:36;;;;;;;19.53;11.73;;;4.00;99.90;;;;;;5123052;27;20435;-60
2021/01/25 06:06:12;;;;;;;17.80;9.97;;;4.00;91.90;;;;;;5120065;27;20489;-59
2021/01/25 06:08:47;;;;;;;19.00;9.90;;;4.10;93.30;;;;;;5118471;27;20443;-59
2021/01/25 06:11:26;;;;;;;14.13;9.57;;;4.00;91.00;;;;;;5123924;27;20445;-59
2021/01/25 06:14:10;;;;;;;15.77;11.00;;;4.00;87.30;;;;;;5131536;27;20434;-59
2021/01/25 06:16:36;;;;;;;13.80;9.30;;;4.00;77.20;;;;;;5131101;27;20439;-59
2021/01/25 06:19:05;;;;;;;13.67;9.03;;;3.90;73.40;;;;;;5126768;27;20500;-59
2021/01/25 06:21:37;;;;;;;14.77;9.50;;;4.00;73.40;;;;;;5133821;27;20218;-60
2021/01/25 06:24:05;;;;;;;18.07;10.80;;;4.10;58.70;;;;;;5126200;27;20444;-59
2021/01/25 06:26:33;;;;;;;15.17;10.87;;;4.10;47.40;;;;;;5130564;27;20441;-59
2021/01/25 06:29:02;;;;;;;17.13;10.70;;;4.00;44.80;;;;;;5115499;27;20567;-59
2021/01/25 06:31:28;;;;;;;17.23;11.00;;;4.10;46.90;;;;;;5123614;27;20443;-59
2021/01/25 06:33:54;;;;;;;16.27;11.07;;;4.00;45.10;;;;;;5123530;27;20477;-59
2021/01/25 06:36:20;;;;;;;12.90;8.70;;;3.90;44.10;;;;;;5115905;27;20649;-59
2021/01/25 06:38:49;;;;;;;15.60;10.97;;;3.90;49.40;;;;;;5125784;27;20680;-60
2021/01/25 06:41:16;;;;;;;16.73;11.50;;;4.10;49.60;;;;;;5102431;27;20959;-60
2021/01/25 06:43:48;;;;;;;15.93;9.87;;;4.10;45.50;;;;;;5120382;27;20805;-60
2021/01/25 06:46:19;;;;;;;13.47;9.60;;;4.10;40.10;;;;;;5123318;27;20474;-59
2021/01/25 06:48:50;;;;;;;17.80;9.93;;;4.00;40.30;;;;;;5118043;27;20442;-59
2021/01/25 06:51:18;;;;;;;17.20;11.20;;;4.00;38.00;;;;;;5129499;27;20491;-59
2021/01/25 06:53:43;;;;;;;14.93;9.20;;;4.00;36.40;;;;;;5106970;27;20436;-60
2021/01/25 06:56:09;;;;;;;15.43;10.53;;;4.10;29.70;;;;;;5120159;27;20430;-60
2021/01/25 06:58:39;;;;;;;15.37;9.47;;;4.10;37.30;;;;;;5123397;27;20203;-60
2021/01/25 07:01:06;;;;;;;17.80;11.00;;;4.10;36.30;;;;;;5122205;27;20178;-60
2021/01/25 07:03:45;;;;;;;16.77;10.60;;;4.10;29.90;;;;;;5127788;27;20489;-59
2021/01/25 07:06:15;;;;;;;16.80;10.20;;;4.20;14.70;;;;;;5115664;27;20432;-60
2021/01/25 07:08:52;;;;;;;16.27;12.20;;;4.10;18.10;;;;;;5130955;27;20438;-60
2021/01/25 07:11:20;;;;;;;18.90;11.53;;;4.20;21.00;;;;;;5125162;27;20527;-59
2021/01/25 07:13:46;;;;;;;19.67;11.33;;;4.10;21.20;;;;;;5113024;28;20444;-60
2021/01/25 07:16:12;;;;;;;16.27;10.57;;;4.20;18.80;;;;;;5126966;27;20433;-59
2021/01/25 07:18:42;;;;;;;15.00;11.40;;;4.10;11.10;;;;;;5116328;27;20482;-59
2021/01/25 07:21:08;;;;;;;16.50;9.80;;;4.10;12.20;;;;;;5121392;27;20180;-59
2021/01/25 07:23:41;;;;;;;14.30;9.70;;;4.20;11.50;;;;;;5132912;27;20849;-59
2021/01/25 07:26:06;;;;;;;17.87;9.90;;;4.10;9.40;;;;;;5116772;27;20443;-60
2021/01/25 07:28:32;;;;;;;17.40;10.30;;;4.20;9.00;;;;;;5130775;27;20446;-60
2021/01/25 07:30:58;;;;;;;15.83;10.43;;;4.20;7.90;;;;;;5134497;27;20258;-60
2021/01/25 07:33:25;;;;;;;17.70;11.00;;;4.20;7.60;;;;;;5116041;27;20539;-61
2021/01/25 07:35:53;;;;;;;16.80;10.50;;;4.40;4.30;;;;;;5120683;27;20448;-61
2021/01/25 07:38:20;;;;;;;16.50;11.47;;;4.50;4.20;;;;;;5132840;27;20518;-61
2021/01/25 07:40:48;;;;;;;19.30;11.63;;;4.60;1.00;;;;;;5128075;27;20435;-60
2021/01/25 07:43:18;;;;;;;19.23;9.80;;;4.60;1.00;;;;;;5124315;27;20439;-61
2021/01/25 07:45:46;;;;;;;14.83;10.60;;;4.70;1.00;;;;;;5119367;27;20785;-61
2021/01/25 07:48:13;;;;;;;22.40;11.80;;;4.80;1.00;;;;;;5122686;27;20451;-60
2021/01/25 07:50:40;;;;;;;17.57;10.57;;;4.80;1.00;;;;;;5126167;27;20491;-60
2021/01/25 07:53:07;;;;;;;16.63;11.23;;;4.80;1.00;;;;;;5115793;27;20443;-61
2021/01/25 07:55:39;;;;;;;21.93;10.40;;;4.70;1.00;;;;;;5122349;27;20440;-59
2021/01/25 07:58:08;;;;;;;18.00;10.10;;;4.90;1.00;;;;;;5117155;27;20874;-59
2021/01/25 08:00:37;;;;;;;16.07;11.40;;;4.80;1.00;;;;;;5112857;28;20986;-60
2021/01/25 08:03:22;;;;;;;19.43;10.87;;;4.90;1.00;;;;;;5115513;27;20436;-60
2021/01/25 08:05:53;;;;;;;17.40;10.43;;;4.90;1.00;;;;;;5126050;27;20443;-60
2021/01/25 08:08:20;;;;;;;18.60;10.53;;;4.90;1.00;;;;;;5115628;27;20436;-61
2021/01/25 08:10:48;;;;;;;14.80;9.63;;;4.90;1.00;;;;;;5115203;27;20437;-60
2021/01/25 08:13:19;;;;;;;15.60;10.07;;;4.90;1.00;;;;;;5117532;27;20839;-60
2021/01/25 08:16:14;;;;;;;19.10;11.03;;;5.00;1.00;;;;;;5120835;27;20781;-61
2021/01/25 08:18:58;;;;;;;19.33;11.80;;;5.00;1.00;;;;;;5113394;27;20459;-60
2021/01/25 08:21:34;;;;;;;14.87;9.23;;;5.10;1.00;;;;;;5116826;27;20842;-60
2021/01/25 08:24:03;;;;;;;13.97;10.10;;;5.10;1.00;;;;;;5128249;27;20431;-61
2021/01/25 08:26:30;;;;;;;15.47;9.77;;;5.00;1.00;;;;;;5124292;27;20860;-61
2021/01/25 08:29:11;;;;;;;16.23;10.30;;;5.00;1.00;;;;;;5109963;28;20461;-61
2021/01/25 08:31:42;;;;;;;15.20;9.53;;;5.10;1.00;;;;;;5117776;27;20463;-61
2021/01/25 08:34:23;;;;;;;18.00;10.50;;;5.20;1.00;;;;;;5120149;27;20465;-61
2021/01/25 08:37:00;;;;;;;15.00;9.97;;;5.30;1.00;;;;;;5119123;27;21061;-60
2021/01/25 08:39:34;;;;;;;16.97;10.60;;;5.60;1.00;;;;;;5116288;27;20435;-60
2021/01/25 08:42:02;;;;;;;12.57;8.63;;;5.60;1.00;;;;;;5117353;27;20427;-60
2021/01/25 08:44:28;;;;;;;18.00;10.20;;;5.70;1.00;;;;;;5121405;27;20445;-62
2021/01/25 08:46:53;;;;;;;15.23;9.33;;;5.60;1.00;;;;;;5117559;27;21023;-60
2021/01/25 08:49:32;;;;;;;12.73;9.33;;;5.60;1.00;;;;;;5125231;27;20217;-60
2021/01/25 08:52:00;;;;;;;20.03;10.43;;;5.70;1.00;;;;;;5124851;27;20527;-59
2021/01/25 08:54:53;;;;;;;20.10;12.00;;;5.70;1.00;;;;;;5120246;27;20428;-59
2021/01/25 08:57:33;;;;;;;14.70;9.30;;;5.60;1.00;;;;;;5112567;27;20466;-59
2021/01/25 09:00:27;;;;;;;13.60;9.13;;;5.80;1.00;;;;;;5123159;27;20434;-58
2021/01/25 09:03:02;;;;;;;13.10;9.17;;;5.80;1.00;;;;;;5128126;27;20927;-58
2021/01/25 09:05:28;;;;;;;15.10;9.63;;;5.60;1.00;;;;;;5117634;27;20429;-58
2021/01/25 09:07:54;;;;;;;12.70;8.77;;;5.70;1.00;;;;;;5126245;27;20491;-58
2021/01/25 09:10:20;;;;;;;13.33;9.40;;;5.50;1.00;;;;;;5126256;27;20459;-58
2021/01/25 09:12:46;;;;;;;15.83;9.80;;;5.30;1.00;;;;;;5122342;27;20535;-58
2021/01/25 09:15:13;;;;;;;15.03;9.33;;;5.40;1.00;;;;;;5119805;27;20467;-58
2021/01/25 09:17:39;;;;;;;14.40;9.23;;;5.60;1.00;;;;;;5121542;27;20211;-58
2021/01/25 09:20:06;;;;;;;16.70;9.67;;;5.60;1.00;;;;;;5121119;27;20783;-58
2021/01/25 09:22:32;;;;;;;16.97;10.73;;;5.80;1.00;;;;;;5120545;27;20178;-58
2021/01/25 09:24:58;;;;;;;12.90;8.60;;;5.90;1.00;;;;;;5123370;27;20436;-58
2021/01/25 09:27:24;;;;;;;12.80;9.10;;;5.90;1.00;;;;;;5117987;27;20766;-58
2021/01/25 09:29:51;;;;;;;13.53;9.07;;;5.90;1.00;;;;;;5130592;27;20799;-58
2021/01/25 09:32:16;;;;;;;21.40;13.20;;;5.90;1.00;;;;;;5117753;27;20459;-58
2021/01/25 09:34:42;;;;;;;15.87;10.90;;;6.00;1.00;;;;;;5125844;27;20440;-58
2021/01/25 09:37:09;;;;;;;14.27;9.20;;;6.00;1.00;;;;;;5123717;27;20570;-58
2021/01/25 09:39:36;;;;;;;11.70;8.07;;;6.00;1.00;;;;;;5123784;27;20623;-58
2021/01/25 09:42:03;;;;;;;17.00;9.13;;;6.00;1.00;;;;;;5125164;28;20439;-58
2021/01/25 09:44:29;;;;;;;12.80;9.60;;;5.70;1.00;;;;;;5115738;28;20425;-58
2021/01/25 09:46:56;;;;;;;12.67;9.03;;;5.60;1.00;;;;;;5115427;28;20473;-58
2021/01/25 09:49:23;;;;;;;12.33;8.40;;;5.50;1.00;;;;;;5124736;28;20661;-58
2021/01/25 09:51:49;;;;;;;12.93;9.27;;;5.50;1.00;;;;;;5121424;27;20436;-58
2021/01/25 09:54:15;;;;;;;14.23;10.63;;;5.30;1.00;;;;;;5126123;27;20438;-58
2021/01/25 09:56:41;;;;;;;17.40;10.07;;;5.10;1.00;;;;;;5119439;28;20426;-58
2021/01/25 09:59:06;;;;;;;13.33;9.20;;;5.10;1.00;;;;;;5120744;28;20431;-58
2021/01/25 10:01:32;;;;;;;16.40;10.93;;;5.10;1.00;;;;;;5122458;28;20177;-58
2021/01/25 10:03:58;;;;;;;13.17;9.30;;;5.20;1.00;;;;;;5121269;27;20235;-59
2021/01/25 10:06:27;;;;;;;13.20;9.80;;;5.20;1.00;;;;;;5122324;27;20497;-58
2021/01/25 10:08:53;;;;;;;14.53;10.23;;;5.40;1.00;;;;;;5124845;28;20530;-59
2021/01/25 10:11:19;;;;;;;15.67;10.00;;;5.50;1.00;;;;;;5124184;27;20475;-58
2021/01/25 10:13:44;;;;;;;17.80;10.60;;;5.70;1.00;;;;;;5117721;28;20491;-58
2021/01/25 10:16:10;;;;;;;13.03;9.27;;;5.80;1.00;;;;;;5119772;28;20699;-58
2021/01/25 10:18:36;;;;;;;14.70;10.23;;;6.10;1.00;;;;;;5122585;28;20266;-59
2021/01/25 10:21:01;;;;;;;14.70;9.50;;;6.20;1.00;;;;;;5122152;27;20225;-58
2021/01/25 10:23:28;;;;;;;10.90;8.10;;;6.10;1.00;;;;;;5125575;27;20181;-58
2021/01/25 10:25:54;;;;;;;11.83;8.30;;;6.10;1.00;;;;;;5118903;28;20490;-58
2021/01/25 10:28:20;;;;;;;14.70;9.43;;;6.10;1.00;;;;;;5122623;28;20435;-58
2021/01/25 10:30:46;;;;;;;12.77;10.07;;;6.20;1.00;;;;;;5117972;27;20178;-59
2021/01/25 10:33:12;;;;;;;14.53;10.00;;;6.30;1.00;;;;;;5131196;27;20470;-58
2021/01/25 10:35:37;;;;;;;16.53;11.30;;;6.60;1.00;;;;;;5121424;27;20542;-58
2021/01/25 10:38:04;;;;;;;12.63;9.10;;;6.60;1.00;;;;;;5125576;27;20249;-58
2021/01/25 10:40:30;;;;;;;14.30;10.20;;;6.40;1.00;;;;;;5129739;27;20188;-59
2021/01/25 10:42:57;;;;;;;14.50;9.23;;;6.30;1.00;;;;;;5125755;27;20428;-58
2021/01/25 10:45:23;;;;;;;14.80;10.33;;;6.30;1.00;;;;;;5122857;27;20577;-58
2021/01/25 10:47:49;;;;;;;16.20;9.37;;;6.10;1.00;;;;;;5123092;27;20428;-58
2021/01/25 10:50:16;;;;;;;13.00;8.07;;;5.80;1.00;;;;;;5123103;27;20446;-58
2021/01/25 10:52:43;;;;;;;16.03;10.00;;;5.80;1.00;;;;;;5123537;27;20241;-57
2021/01/25 10:55:09;;;;;;;11.83;8.10;;;5.90;1.00;;;;;;5125846;27;20789;-58
2021/01/25 10:57:34;;;;;;;11.73;8.83;;;5.80;1.00;;;;;;5125521;27;20819;-58
2021/01/25 11:00:02;;;;;;;14.90;9.73;;;5.90;1.00;;;;;;5129883;27;20524;-58
2021/01/25 11:02:28;;;;;;;11.03;7.93;;;5.70;1.00;;;;;;5123036;27;20190;-57
2021/01/25 11:04:54;;;;;;;10.20;8.63;;;5.70;1.00;;;;;;5126307;27;20449;-58
2021/01/25 11:07:19;;;;;;;12.43;8.20;;;5.50;1.00;;;;;;5118853;27;20678;-58
2021/01/25 11:09:45;;;;;;;12.20;7.53;;;5.30;1.00;;;;;;5130017;27;20188;-58
2021/01/25 11:12:10;;;;;;;10.87;7.90;;;5.40;1.00;;;;;;5126275;27;20203;-57
2021/01/25 11:14:36;;;;;;;13.63;8.50;;;5.40;1.00;;;;;;5122824;27;20182;-58
2021/01/25 11:17:01;;;;;;;11.50;7.70;;;5.40;1.00;;;;;;5126295;27;20259;-58
2021/01/25 11:19:27;;;;;;;10.67;7.33;;;5.50;1.00;;;;;;5121604;27;20189;-57
2021/01/25 11:21:52;;;;;;;12.23;7.40;;;5.50;1.00;;;;;;5121437;27;20198;-58
2021/01/25 11:24:18;;;;;;;10.30;7.30;;;5.60;1.00;;;;;;5124096;27;20180;-58
2021/01/25 11:26:44;;;;;;;13.33;7.80;;;5.60;1.00;;;;;;5128399;27;20208;-57
2021/01/25 11:29:10;;;;;;;9.77;7.97;;;5.60;1.00;;;;;;5126814;27;20262;-58
2021/01/25 11:31:36;;;;;;;11.23;7.90;;;5.30;1.00;;;;;;5125341;27;20619;-58
2021/01/25 11:34:02;;;;;;;10.83;7.30;;;5.40;1.00;;;;;;5123963;27;20524;-58
2021/01/25 11:36:27;;;;;;;10.40;7.30;;;5.40;1.00;;;;;;5129779;27;20262;-58
2021/01/25 11:38:53;;;;;;;11.10;7.90;;;5.60;1.00;;;;;;5123624;27;20536;-57
2021/01/25 11:41:19;;;;;;;9.10;6.60;;;5.80;1.00;;;;;;5122287;27;20174;-59
2021/01/25 11:43:45;;;;;;;8.93;7.07;;;6.00;1.00;;;;;;5117060;27;20424;-58
2021/01/25 11:46:11;;;;;;;7.93;6.00;;;6.00;1.00;;;;;;5119008;27;20184;-57
2021/01/25 11:48:37;;;;;;;8.83;6.30;;;6.30;1.00;;;;;;5129829;27;20889;-59
2021/01/25 11:51:03;;;;;;;10.80;7.50;;;6.60;1.00;;;;;;5121944;27;20444;-58
2021/01/25 11:53:30;;;;;;;9.40;6.50;;;6.60;1.00;;;;;;5127089;27;20190;-58
2021/01/25 11:55:56;;;;;;;10.70;7.27;;;6.60;1.00;;;;;;5123269;27;20513;-58
2021/01/25 11:58:22;;;;;;;10.90;7.07;;;6.40;1.00;;;;;;5123644;27;20539;-58
2021/01/25 12:00:47;;;;;;;11.07;7.57;;;6.20;1.00;;;;;;5123229;27;20198;-57
2021/01/25 12:03:13;;;;;;;10.63;8.20;;;6.10;1.00;;;;;;5126339;27;20174;-59
2021/01/25 12:05:39;;;;;;;11.97;8.13;;;5.90;1.00;;;;;;5117264;27;20317;-58
2021/01/25 12:08:07;;;;;;;11.33;8.23;;;5.70;1.00;;;;;;5115609;27;20525;-58
2021/01/25 12:10:34;;;;;;;12.47;8.67;;;5.70;1.00;;;;;;5126302;27;20182;-57
2021/01/25 12:13:00;;;;;;;12.07;7.10;;;5.80;1.00;;;;;;5133958;27;20618;-58
2021/01/25 12:15:25;;;;;;;9.30;6.80;;;5.90;1.00;;;;;;5118412;27;20944;-57
2021/01/25 12:17:51;;;;;;;12.93;8.20;;;6.00;1.00;;;;;;5124368;27;20221;-57
2021/01/25 12:20:17;;;;;;;12.93;7.63;;;6.00;1.00;;;;;;5126095;27;20402;-58
2021/01/25 12:22:42;;;;;;;12.47;7.80;;;6.10;1.00;;;;;;5121056;27;20661;-58
2021/01/25 12:25:09;;;;;;;10.93;7.03;;;6.30;1.00;;;;;;5117525;27;20428;-57
2021/01/25 12:27:35;;;;;;;12.33;7.80;;;6.30;1.00;;;;;;5120786;27;20178;-58
2021/01/25 12:30:01;;;;;;;11.50;7.60;;;6.30;1.00;;;;;;5119059;27;20507;-57
2021/01/25 12:32:27;;;;;;;10.83;7.50;;;6.20;1.00;;;;;;5118678;27;20221;-60
2021/01/25 12:34:53;;;;;;;10.87;7.63;;;6.20;1.00;;;;;;5121260;27;21069;-57
2021/01/25 12:37:19;;;;;;;10.43;8.03;;;5.90;1.00;;;;;;5129172;27;20446;-58
2021/01/25 12:39:44;;;;;;;10.97;7.43;;;5.80;1.00;;;;;;5121516;27;20186;-58
2021/01/25 12:42:10;;;;;;;11.50;8.07;;;5.80;1.00;;;;;;5123047;27;20277;-58
2021/01/25 12:44:36;;;;;;;10.30;7.90;;;5.60;1.00;;;;;;5120662;27;20565;-57
2021/01/25 12:47:03;;;;;;;10.07;7.37;;;5.60;1.00;;;;;;5116482;27;20704;-58